Time;durP1;ratioP1;P1;durP2;ratioP2;P2;SDS_P1;SDS_P2;PMS_P1;PMS_P2;Temp;Humidity;BMP_temperature;BMP_pressure;BME280_temperature;BME280_humidity;BME280_pressure;Samples;Min_cycle;Max_cycle;Signal;HPM_P1;HPM_P2
2023/09/19 00:00:35;;;;;;;6.80;6.30;;;;;;;-144.30;75.49;85173.78;5069915;28;20215;-55
2023/09/19 00:03:04;;;;;;;6.35;5.80;;;;;;;-144.30;75.37;85149.94;5070556;28;20310;-56
2023/09/19 00:05:36;;;;;;;6.63;5.93;;;;;;;-144.30;75.47;85149.94;5069869;28;20668;-56
2023/09/19 00:08:04;;;;;;;7.57;5.70;;;;;;;-144.30;75.86;85165.84;5070042;28;20200;-56
2023/09/19 00:10:34;;;;;;;7.63;6.00;;;;;;;-144.30;76.00;85173.78;5069905;28;20665;-54
2023/09/19 00:13:05;;;;;;;7.45;6.25;;;;;;;-144.30;75.94;85151.94;5070119;28;20204;-60
2023/09/19 00:15:37;;;;;;;6.70;5.72;;;;;;;-144.30;75.57;85084.34;5069607;28;20245;-60
2023/09/19 00:18:06;;;;;;;9.45;5.50;;;;;;;-144.30;75.04;85122.09;5069687;28;20243;-60
2023/09/19 00:20:37;;;;;;;7.35;6.03;;;;;;;-144.30;74.11;85140.00;5069863;28;20727;-60
2023/09/19 00:23:08;;;;;;;10.45;6.50;;;;;;;-144.30;72.35;85171.81;5069816;28;20233;-59
2023/09/19 00:25:37;;;;;;;6.60;5.83;;;;;;;-144.30;71.21;85193.66;5069591;28;20305;-59
2023/09/19 00:28:04;;;;;;;9.25;5.85;;;;;;;-144.30;70.10;85140.00;5069935;28;20198;-59
2023/09/19 00:30:31;;;;;;;11.32;5.93;;;;;;;-144.30;69.82;85138.00;5069497;28;20656;-58
2023/09/19 00:32:58;;;;;;;10.35;6.10;;;;;;;-144.30;69.75;85145.97;5069658;28;20222;-59
2023/09/19 00:35:25;;;;;;;8.02;5.82;;;;;;;-144.30;69.39;85161.88;5069665;28;20206;-60
2023/09/19 00:37:55;;;;;;;8.30;5.87;;;;;;;-144.30;69.21;85054.53;5069575;28;20729;-59
2023/09/19 00:40:22;;;;;;;6.18;5.68;;;;;;;-144.30;69.64;85163.84;5069483;28;20220;-56
2023/09/19 00:42:50;;;;;;;8.50;6.07;;;;;;;-144.30;70.19;85132.03;5069433;28;20672;-55
2023/09/19 00:45:20;;;;;;;6.37;5.87;;;;;;;-144.30;70.40;85177.75;5069439;28;20202;-60
2023/09/19 00:47:50;;;;;;;6.80;6.13;;;;;;;-144.30;70.88;85138.00;5069704;28;20583;-57
2023/09/19 00:50:19;;;;;;;6.57;5.93;;;;;;;-144.30;70.92;85171.81;5069454;28;20200;-59
2023/09/19 00:52:49;;;;;;;8.90;6.40;;;;;;;-144.30;71.35;85197.66;5069466;28;20200;-60
2023/09/19 00:55:19;;;;;;;6.13;5.37;;;;;;;-144.30;71.43;85201.63;5069566;28;20276;-60
2023/09/19 00:57:47;;;;;;;7.13;6.47;;;;;;;-144.30;71.79;85157.88;5069397;28;20310;-60
2023/09/19 01:00:15;;;;;;;5.93;5.43;;;;;;;-144.30;71.64;85173.78;5069459;28;20281;-59
2023/09/19 01:02:43;;;;;;;7.20;5.20;;;;;;;-144.30;71.16;85215.53;5069115;28;20199;-59
2023/09/19 01:05:12;;;;;;;10.73;5.97;;;;;;;-144.30;71.02;85221.50;5069179;28;20245;-59
2023/09/19 01:07:40;;;;;;;6.00;5.43;;;;;;;-144.30;70.95;85237.41;5069340;28;20227;-59
2023/09/19 01:10:10;;;;;;;6.53;5.50;;;;;;;-144.30;70.89;85217.53;5069417;28;20219;-59
2023/09/19 01:12:49;;;;;;;6.07;5.40;;;;;;;-144.30;70.73;85223.47;5069035;28;20228;-65
2023/09/19 01:15:25;;;;;;;6.10;5.50;;;;;;;-144.30;70.96;85237.41;5069720;28;20580;-62
2023/09/19 01:18:02;;;;;;;6.60;5.47;;;;;;;-144.30;71.17;85231.44;5068843;28;20223;-55
2023/09/19 01:20:39;;;;;;;6.20;5.60;;;;;;;-144.30;71.52;85253.31;5069352;28;20223;-57
2023/09/19 01:23:15;;;;;;;9.50;5.57;;;;;;;-144.30;71.86;85253.31;5068988;28;20199;-59
2023/09/19 01:25:57;;;;;;;10.37;6.20;;;;;;;-144.30;72.53;85257.28;5069166;28;20211;-59
2023/09/19 01:28:36;;;;;;;8.33;6.57;;;;;;;-144.30;73.02;85265.22;5069012;28;20199;-55
2023/09/19 01:31:09;;;;;;;7.20;6.10;;;;;;;-144.30;73.44;85241.38;5069211;28;20192;-56
2023/09/19 01:33:57;;;;;;;6.43;5.93;;;;;;;-144.30;74.02;85281.13;5070351;28;20200;-56
2023/09/19 01:36:24;;;;;;;7.63;6.90;;;;;;;-144.30;74.27;85261.25;5072959;28;20199;-60
2023/09/19 01:38:51;;;;;;;7.80;6.83;;;;;;;-144.30;74.28;85233.44;5072729;28;20196;-56
2023/09/19 01:41:26;;;;;;;7.07;6.47;;;;;;;-144.30;74.43;85229.44;5072793;28;20245;-56
2023/09/19 01:43:53;;;;;;;6.30;5.80;;;;;;;-144.30;74.41;85255.28;5072539;28;20269;-59
2023/09/19 01:46:26;;;;;;;10.23;6.87;;;;;;;-144.30;74.52;85239.38;5073027;28;20676;-56
2023/09/19 01:49:03;;;;;;;10.47;6.60;;;;;;;-144.30;74.70;85241.38;5072633;28;20587;-56
2023/09/19 01:51:35;;;;;;;7.27;6.67;;;;;;;-144.30;74.22;85209.56;5072702;28;20651;-56
2023/09/19 01:54:09;;;;;;;7.07;6.37;;;;;;;-144.30;74.07;85215.53;5072971;28;20192;-56
2023/09/19 01:56:41;;;;;;;6.37;5.87;;;;;;;-144.30;74.98;85209.56;5072502;28;20191;-56
2023/09/19 01:59:13;;;;;;;6.97;6.17;;;;;;;-144.30;75.04;85257.28;5072525;28;20283;-56
2023/09/19 02:01:45;;;;;;;7.40;5.73;;;;;;;-144.30;75.10;85245.34;5072231;28;20227;-56
2023/09/19 02:04:12;;;;;;;6.77;6.17;;;;;;;-144.30;75.08;85310.94;5072405;28;20222;-56
2023/09/19 02:06:41;;;;;;;6.83;5.97;;;;;;;-144.30;74.53;85289.09;5071886;28;20198;-56
2023/09/19 02:09:08;;;;;;;12.33;6.53;;;;;;;-144.30;74.81;85249.34;5072358;28;20204;-56
2023/09/19 02:11:36;;;;;;;7.27;6.57;;;;;;;-144.30;74.02;85293.06;5072179;28;20217;-58
2023/09/19 02:14:04;;;;;;;9.07;6.40;;;;;;;-144.30;73.87;85265.22;5072190;28;20304;-59
2023/09/19 02:16:31;;;;;;;7.13;6.20;;;;;;;-144.30;73.87;85267.22;5072200;28;20207;-59
2023/09/19 02:19:00;;;;;;;8.73;7.33;;;;;;;-144.30;73.64;85279.16;5071804;28;20231;-59
2023/09/19 02:21:29;;;;;;;9.40;8.50;;;;;;;-144.30;73.85;85143.97;5071972;28;20598;-55
2023/09/19 02:23:56;;;;;;;9.23;8.30;;;;;;;-144.30;73.21;85293.06;5071904;28;20196;-55
2023/09/19 02:26:24;;;;;;;10.70;9.30;;;;;;;-144.30;73.39;85287.09;5072130;28;20734;-55
2023/09/19 02:28:52;;;;;;;10.93;6.97;;;;;;;-144.30;73.20;85295.06;5071972;28;20200;-55
2023/09/19 02:31:19;;;;;;;6.77;6.17;;;;;;;-144.30;73.94;85289.09;5071963;28;20192;-56
2023/09/19 02:33:46;;;;;;;7.10;6.50;;;;;;;-144.30;74.72;85293.06;5071596;28;20206;-56
2023/09/19 02:36:16;;;;;;;12.07;7.17;;;;;;;-144.30;74.99;85310.94;5071835;28;20257;-56
2023/09/19 02:38:43;;;;;;;9.47;6.70;;;;;;;-144.30;75.41;85312.94;5071654;28;20279;-59
2023/09/19 02:41:11;;;;;;;10.00;7.60;;;;;;;-144.30;75.94;85332.81;5071685;28;20251;-59
2023/09/19 02:43:38;;;;;;;9.00;6.57;;;;;;;-144.30;76.54;85340.78;5071366;28;20330;-56
2023/09/19 02:46:05;;;;;;;6.77;6.07;;;;;;;-144.30;76.37;85348.72;5070451;28;20232;-56
2023/09/19 02:48:34;;;;;;;7.03;6.37;;;;;;;-144.30;76.35;85322.88;5071472;28;20196;-56
2023/09/19 02:51:01;;;;;;;7.40;6.33;;;;;;;-144.30;75.79;85346.72;5071784;28;20593;-56
2023/09/19 02:53:30;;;;;;;6.47;5.87;;;;;;;-144.30;75.81;85376.56;5071431;28;20204;-56
2023/09/19 02:55:58;;;;;;;6.37;5.77;;;;;;;-144.30;75.25;85358.66;5071318;28;20231;-56
2023/09/19 02:58:27;;;;;;;7.63;5.80;;;;;;;-144.30;75.37;85348.72;5071568;28;20251;-56
2023/09/19 03:00:55;;;;;;;6.83;5.97;;;;;;;-144.30;75.47;85336.78;5070773;28;20220;-56
2023/09/19 03:03:22;;;;;;;8.13;5.73;;;;;;;-144.30;75.59;85372.56;5071668;28;20708;-56
2023/09/19 03:05:51;;;;;;;9.33;5.90;;;;;;;-144.30;75.31;85350.72;5070782;28;20192;-55
2023/09/19 03:08:18;;;;;;;6.90;6.20;;;;;;;-144.30;75.30;85394.44;5066965;28;20211;-56
2023/09/19 03:10:48;;;;;;;8.00;5.70;;;;;;;-144.30;75.35;85362.63;5066126;28;20222;-55
2023/09/19 03:13:16;;;;;;;6.57;5.90;;;;;;;-144.30;75.00;85366.63;5070008;28;20191;-56
2023/09/19 03:15:46;;;;;;;8.43;6.40;;;;;;;-144.30;74.86;85356.69;5069501;28;20196;-56
2023/09/19 03:18:13;;;;;;;8.40;5.67;;;;;;;-144.30;74.52;85362.63;5068342;28;20239;-54
2023/09/19 03:20:40;;;;;;;6.40;5.90;;;;;;;-144.30;74.13;85374.56;5069015;28;20188;-56
2023/09/19 03:23:08;;;;;;;6.73;5.60;;;;;;;-144.30;74.27;85368.59;5069554;28;20660;-55
2023/09/19 03:25:36;;;;;;;7.73;6.40;;;;;;;-144.30;74.99;85358.66;5066765;28;20269;-55
2023/09/19 03:28:06;;;;;;;7.10;6.40;;;;;;;-144.30;74.94;85376.56;5068732;28;20287;-56
2023/09/19 03:30:34;;;;;;;7.57;6.63;;;;;;;-144.30;75.04;85382.53;5068753;28;20584;-59
2023/09/19 03:33:01;;;;;;;7.37;5.93;;;;;;;-144.30;75.51;85380.53;5064299;28;20589;-60
2023/09/19 03:35:28;;;;;;;9.07;7.37;;;;;;;-144.30;75.69;85394.44;5068259;28;20265;-59
2023/09/19 03:37:56;;;;;;;9.17;6.53;;;;;;;-144.30;76.11;85320.91;5069513;28;20236;-56
2023/09/19 03:40:23;;;;;;;7.37;6.63;;;;;;;-144.30;76.59;85384.50;5069416;28;20298;-59
2023/09/19 03:42:50;;;;;;;10.03;7.20;;;;;;;-144.30;77.30;85396.44;5070273;28;20224;-59
2023/09/19 03:45:18;;;;;;;7.10;6.50;;;;;;;-144.30;77.31;85412.34;5069275;28;20652;-56
2023/09/19 03:47:46;;;;;;;7.13;6.57;;;;;;;-144.30;77.26;85404.38;5050454;28;20197;-59
2023/09/19 03:50:15;;;;;;;13.47;7.40;;;;;;;-144.30;77.08;85410.34;5050557;28;20280;-60
2023/09/19 03:52:42;;;;;;;7.30;6.60;;;;;;;-144.30;76.91;85404.38;5050175;28;20197;-58
2023/09/19 03:55:09;;;;;;;10.67;6.60;;;;;;;-144.30;76.73;85392.47;5050325;28;20677;-58
2023/09/19 03:57:36;;;;;;;7.37;6.70;;;;;;;-144.30;76.22;85380.53;5049794;28;20488;-55
2023/09/19 04:00:05;;;;;;;6.87;6.23;;;;;;;-144.30;76.39;85368.59;5050541;28;20266;-54
2023/09/19 04:02:34;;;;;;;7.50;6.43;;;;;;;-144.30;76.65;85438.19;5050091;28;20426;-55
2023/09/19 04:05:02;;;;;;;7.87;7.17;;;;;;;-144.30;77.09;85406.38;5050425;28;20223;-55
2023/09/19 04:07:29;;;;;;;9.50;6.77;;;;;;;-144.30;76.95;85458.06;5069484;28;20290;-55
2023/09/19 04:09:56;;;;;;;10.37;7.23;;;;;;;-144.30;76.59;85426.25;5068340;28;20203;-55
2023/09/19 04:12:23;;;;;;;10.60;6.63;;;;;;;-144.30;76.38;85424.25;5068407;28;20196;-57
2023/09/19 04:14:51;;;;;;;10.63;7.77;;;;;;;-144.30;76.03;85420.28;5067844;28;20767;-56
2023/09/19 04:17:18;;;;;;;9.03;7.87;;;;;;;-144.30;76.07;85440.16;5065345;28;20196;-58
2023/09/19 04:19:46;;;;;;;7.97;7.03;;;;;;;-144.30;76.27;85376.56;5068640;28;20579;-58
2023/09/19 04:22:13;;;;;;;8.27;7.03;;;;;;;-144.30;76.73;85416.31;5068863;28;20699;-55
2023/09/19 04:24:40;;;;;;;9.43;6.87;;;;;;;-144.30;76.58;85408.34;5069040;28;20589;-55
2023/09/19 04:27:09;;;;;;;9.97;6.77;;;;;;;-144.30;75.79;85388.47;5063352;28;20626;-58
2023/09/19 04:29:37;;;;;;;12.77;7.47;;;;;;;-144.30;75.55;85388.47;5068063;28;20667;-57
2023/09/19 04:32:05;;;;;;;8.20;7.17;;;;;;;-144.30;74.96;85380.53;5068413;28;20192;-58
2023/09/19 04:34:34;;;;;;;8.00;7.30;;;;;;;-144.30;74.41;85344.75;5068477;28;20207;-57
2023/09/19 04:37:03;;;;;;;7.23;6.53;;;;;;;-144.30;73.87;85360.66;5081230;28;20235;-57
2023/09/19 04:39:30;;;;;;;12.00;6.97;;;;;;;-144.30;74.19;85386.50;5068822;28;20200;-54
2023/09/19 04:41:58;;;;;;;7.90;6.80;;;;;;;-144.30;73.95;85380.53;5068237;28;20272;-54
2023/09/19 04:44:25;;;;;;;8.33;6.20;;;;;;;-144.30;73.11;85386.50;5068953;28;20196;-55
2023/09/19 04:46:52;;;;;;;7.27;6.67;;;;;;;-144.30;72.70;85358.66;5068165;28;20763;-58
2023/09/19 04:49:19;;;;;;;6.63;6.03;;;;;;;-144.30;72.31;85487.88;5068937;28;20727;-58
2023/09/19 04:51:47;;;;;;;11.07;6.47;;;;;;;-144.30;71.51;85352.69;5067467;28;20656;-56
2023/09/19 04:54:15;;;;;;;7.53;6.80;;;;;;;-144.30;71.38;85271.19;5068023;28;20269;-53
2023/09/19 04:56:42;;;;;;;9.83;6.57;;;;;;;-144.30;71.30;85316.91;5068027;28;20192;-54
2023/09/19 04:59:10;;;;;;;6.33;5.73;;;;;;;-144.30;71.19;85301.00;5068384;28;20199;-54
2023/09/19 05:01:36;;;;;;;6.97;6.47;;;;;;;-144.30;70.19;85314.94;5068506;28;20220;-54
2023/09/19 05:04:04;;;;;;;7.27;6.57;;;;;;;-144.30;69.68;85261.25;5068518;28;20283;-57
2023/09/19 05:06:32;;;;;;;8.10;6.17;;;;;;;-144.30;69.36;85267.22;5068395;28;20278;-54
2023/09/19 05:09:00;;;;;;;9.43;6.77;;;;;;;-144.30;68.60;85243.38;5070878;28;20644;-57
2023/09/19 05:11:30;;;;;;;10.93;7.33;;;;;;;-144.30;67.72;85209.56;5073128;28;20199;-54
2023/09/19 05:13:57;;;;;;;7.60;6.97;;;;;;;-144.30;65.01;85056.50;5072656;28;20192;-57
2023/09/19 05:16:23;;;;;;;8.00;7.25;;;;;;;-144.30;60.05;84891.53;5072565;28;20206;-54
2023/09/19 05:18:50;;;;;;;10.30;6.50;;;;;;;-144.30;55.27;84597.38;5072599;28;20326;-55
2023/09/19 05:21:17;;;;;;;9.98;6.30;;;;;;;-144.30;50.82;84396.66;5072899;28;20196;-55
2023/09/19 05:23:44;;;;;;;9.45;7.78;;;;;;;-144.30;47.16;84187.97;5073200;28;20557;-56
2023/09/19 05:26:12;;;;;;;14.75;8.15;;;;;;;-144.30;45.18;84021.06;5073148;28;20195;-58
2023/09/19 05:28:41;;;;;;;8.23;6.53;;;;;;;-144.30;43.20;83850.16;5072799;28;20207;-56
2023/09/19 05:31:07;;;;;;;12.10;6.40;;;;;;;-144.30;40.98;83756.78;5072806;28;20202;-55
2023/09/19 05:33:34;;;;;;;12.10;7.10;;;;;;;-144.30;40.28;83605.75;5072835;28;20192;-56
2023/09/19 05:36:01;;;;;;;7.70;6.38;;;;;;;-144.30;39.46;83522.31;5072782;28;20195;-56
2023/09/19 05:38:30;;;;;;;7.43;6.70;;;;;;;-144.30;38.18;83331.59;5072700;28;20196;-58
2023/09/19 05:40:57;;;;;;;8.13;6.00;;;;;;;-144.30;36.69;83218.34;5072689;28;20215;-55
2023/09/19 05:43:26;;;;;;;7.65;6.32;;;;;;;-144.30;35.78;83079.28;5073357;28;20212;-59
2023/09/19 05:45:56;;;;;;;12.25;8.93;;;;;;;-144.30;34.74;82977.97;5072412;28;20724;-55
2023/09/19 05:48:23;;;;;;;9.90;7.75;;;;;;;-144.30;34.83;83013.72;5071619;28;20286;-54
2023/09/19 05:50:50;;;;;;;14.75;6.90;;;;;;;-144.30;34.68;82983.91;5072546;28;20192;-58
2023/09/19 05:53:18;;;;;;;10.07;6.53;;;;;;;-144.30;33.79;82834.94;5072354;28;20198;-59
2023/09/19 05:55:45;;;;;;;16.63;8.05;;;;;;;-144.30;33.12;82729.66;5072281;28;20741;-58
2023/09/19 05:58:13;;;;;;;21.00;6.43;;;;;;;-144.30;32.46;82683.97;5072346;28;20246;-59
2023/09/19 06:00:42;;;;;;;19.65;6.35;;;;;;;-144.30;31.82;82521.09;5072270;28;20195;-59
2023/09/19 06:03:13;;;;;;;11.95;7.88;;;;;;;-144.30;32.00;82507.19;5072426;28;20223;-56
2023/09/19 06:05:41;;;;;;;11.75;7.22;;;;;;;-144.30;31.88;82662.09;5072053;28;20199;-55
2023/09/19 06:08:09;;;;;;;8.35;7.65;;;;;;;-144.30;32.99;82809.09;5072283;28;20258;-54
2023/09/19 06:10:36;;;;;;;9.50;8.40;;;;;;;-144.30;33.76;82956.09;5072132;28;20196;-55
2023/09/19 06:13:04;;;;;;;8.15;7.45;;;;;;;-144.30;34.37;83045.50;5072615;28;20582;-58
2023/09/19 06:15:33;;;;;;;7.03;6.10;;;;;;;-144.30;33.90;82864.72;5072130;28;20192;-58
2023/09/19 06:18:02;;;;;;;9.23;7.43;;;;;;;-144.30;32.84;82727.66;5071757;28;20315;-58
2023/09/19 06:20:32;;;;;;;9.00;6.80;;;;;;;-144.30;32.04;82570.75;5071605;28;20207;-59
2023/09/19 06:23:01;;;;;;;11.77;9.57;;;;;;;-144.30;31.84;82489.31;5071560;28;20230;-54
2023/09/19 06:25:28;;;;;;;11.45;5.88;;;;;;;-144.30;31.25;82298.63;5072100;28;20257;-55
2023/09/19 06:27:56;;;;;;;8.00;7.25;;;;;;;-144.30;30.84;82161.59;5071610;28;20188;-55
2023/09/19 06:30:25;;;;;;;8.88;7.03;;;;;;;-144.30;30.69;82201.31;5071886;28;20207;-58
2023/09/19 06:32:57;;;;;;;12.10;7.82;;;;;;;-144.30;31.49;82419.78;5071515;28;20196;-58
2023/09/19 06:35:26;;;;;;;10.82;8.13;;;;;;;-144.30;31.83;82342.31;5070982;28;20200;-58
2023/09/19 06:37:54;;;;;;;8.05;6.93;;;;;;;-144.30;31.38;82225.13;5071497;28;20207;-59
2023/09/19 06:40:21;;;;;;;10.63;7.57;;;;;;;-144.30;30.62;82098.03;5071744;28;20234;-56
2023/09/19 06:42:52;;;;;;;11.52;7.93;;;;;;;-144.30;30.38;82030.50;5065504;28;20215;-56
2023/09/19 06:45:19;;;;;;;16.75;9.95;;;;;;;-144.30;30.12;81905.38;5071301;28;20202;-56
2023/09/19 06:47:50;;;;;;;9.48;7.35;;;;;;;-144.30;29.41;81823.97;5071311;28;20699;-60
2023/09/19 06:50:19;;;;;;;9.25;8.30;;;;;;;-144.30;30.47;82078.16;5070454;28;20257;-58
2023/09/19 06:52:46;;;;;;;10.80;6.03;;;;;;;-144.30;31.45;82292.66;5071514;28;20220;-58
2023/09/19 06:55:16;;;;;;;8.90;6.00;;;;;;;-144.30;31.83;82405.88;5071613;28;20691;-58
2023/09/19 06:57:43;;;;;;;10.75;5.32;;;;;;;-144.30;32.39;82441.63;5071237;28;20295;-59
2023/09/19 07:00:15;;;;;;;10.68;6.07;;;;;;;-144.30;32.17;82431.69;5065570;28;20204;-58
2023/09/19 07:02:42;;;;;;;6.78;5.75;;;;;;;-144.30;32.99;82578.69;5067711;28;20216;-59
2023/09/19 07:05:10;;;;;;;11.02;9.88;;;;;;;-144.30;34.02;82717.72;5068234;28;20200;-56
2023/09/19 07:07:37;;;;;;;12.18;7.60;;;;;;;-144.30;35.09;82966.03;5070726;28;20195;-55
2023/09/19 07:10:05;;;;;;;27.05;10.45;;;;;;;-144.30;36.41;83099.13;5070736;28;20208;-55
2023/09/19 07:12:33;;;;;;;17.05;13.95;;;;;;;-144.30;35.72;82958.09;5070684;28;20184;-56
2023/09/19 07:15:00;;;;;;;15.70;7.45;;;;;;;-144.30;35.39;82916.38;5070295;28;21187;-55
2023/09/19 07:17:29;;;;;;;8.25;5.68;;;;;;;-144.30;35.22;82880.63;5070188;28;20199;-56
2023/09/19 07:19:56;;;;;;;9.07;6.55;;;;;;;-144.30;35.95;82983.91;5070462;28;20637;-59
2023/09/19 07:22:23;;;;;;;8.55;6.68;;;;;;;-144.30;35.66;82862.75;5070212;28;20227;-59
2023/09/19 07:24:50;;;;;;;10.90;7.70;;;;;;;-144.30;34.99;82757.47;5067896;28;20203;-60
2023/09/19 07:27:17;;;;;;;7.72;6.97;;;;;;;-144.30;34.04;82594.56;5070608;28;20204;-59
2023/09/19 07:29:45;;;;;;;9.30;7.03;;;;;;;-144.30;33.31;82441.63;5070417;28;20690;-59
2023/09/19 07:32:13;;;;;;;10.77;5.90;;;;;;;-144.30;31.61;82157.63;5070149;28;20200;-59
2023/09/19 07:34:41;;;;;;;9.25;7.22;;;;;;;-144.30;30.49;81887.53;5070466;28;20202;-59
2023/09/19 07:37:08;;;;;;;12.20;6.75;;;;;;;-144.30;29.75;81692.91;5070816;28;20615;-59
2023/09/19 07:39:35;;;;;;;9.68;5.70;;;;;;;-144.30;28.29;81291.78;5066635;28;20199;-58
2023/09/19 07:42:01;;;;;;;9.13;4.57;;;;;;;-144.30;27.86;81194.50;5069648;28;20590;-55
2023/09/19 07:44:28;;;;;;;5.25;4.72;;;;;;;-144.30;26.91;81067.44;5068511;28;20214;-56
2023/09/19 07:46:57;;;;;;;6.55;5.75;;;;;;;-144.30;26.54;80777.56;5069839;28;20582;-59
2023/09/19 07:49:24;;;;;;;5.70;5.18;;;;;;;-144.30;26.29;80805.34;5070380;28;20276;-59
2023/09/19 07:51:51;;;;;;;5.43;5.00;;;;;;;-144.30;26.26;80856.97;5070120;28;20234;-58
2023/09/19 07:54:18;;;;;;;5.35;4.85;;;;;;;-144.30;26.48;80970.16;5070245;28;20191;-56
2023/09/19 07:56:45;;;;;;;5.60;4.40;;;;;;;-144.30;27.05;81140.91;5065382;28;20207;-58
2023/09/19 07:59:13;;;;;;;6.68;4.88;;;;;;;-144.30;27.42;81361.28;5068759;28;20203;-59
2023/09/19 08:01:40;;;;;;;6.75;6.25;;;;;;;-144.30;28.85;81756.44;5068967;28;20261;-58
2023/09/19 08:04:12;;;;;;;6.20;5.32;;;;;;;-144.30;30.89;82268.84;5070017;28;20703;-57
2023/09/19 08:06:39;;;;;;;9.52;4.75;;;;;;;-144.30;33.00;82711.78;5070024;28;20206;-55
2023/09/19 08:09:07;;;;;;;6.55;5.95;;;;;;;-144.30;35.05;83005.78;5069908;28;20201;-55
2023/09/19 08:11:34;;;;;;;8.30;5.75;;;;;;;-144.30;36.80;83270.00;5069919;28;20269;-55
2023/09/19 08:14:01;;;;;;;6.30;5.72;;;;;;;-144.30;37.84;83387.22;5069554;28;20206;-55
2023/09/19 08:16:28;;;;;;;6.72;5.85;;;;;;;-144.30;39.82;83575.97;5070137;28;20203;-55
2023/09/19 08:18:55;;;;;;;6.65;5.97;;;;;;;-144.30;40.87;83663.38;5069535;28;20231;-55
2023/09/19 08:21:24;;;;;;;8.18;5.68;;;;;;;-144.30;41.74;83677.28;5069957;28;20784;-58
2023/09/19 08:23:50;;;;;;;6.70;5.82;;;;;;;-144.30;41.46;83687.22;5069324;28;20756;-57
2023/09/19 08:26:17;;;;;;;6.63;5.25;;;;;;;-144.30;41.74;83730.94;5069959;28;20587;-58
2023/09/19 08:28:44;;;;;;;10.52;5.95;;;;;;;-144.30;41.45;83738.88;5069377;28;20200;-58
2023/09/19 08:31:11;;;;;;;6.25;5.65;;;;;;;-144.30;41.99;83796.50;5069890;28;20199;-55
2023/09/19 08:33:40;;;;;;;6.80;5.90;;;;;;;-144.30;42.51;83822.34;5069693;28;20738;-54
2023/09/19 08:36:09;;;;;;;9.10;5.70;;;;;;;-144.30;42.88;83850.16;5069861;28;20196;-54
2023/09/19 08:38:37;;;;;;;10.95;5.60;;;;;;;-144.30;43.09;83885.94;5069474;28;20695;-54
2023/09/19 08:41:07;;;;;;;6.78;5.20;;;;;;;-144.30;42.68;83879.97;5069723;28;20199;-55
2023/09/19 08:43:34;;;;;;;6.68;5.20;;;;;;;-144.30;42.77;83838.25;5069663;28;20708;-54
2023/09/19 08:46:11;;;;;;;10.45;6.10;;;;;;;-144.30;43.48;83879.97;5069209;28;20202;-59
2023/09/19 08:48:40;;;;;;;6.20;5.70;;;;;;;-144.30;43.72;83925.66;5069417;28;20200;-58
2023/09/19 08:51:09;;;;;;;11.50;6.20;;;;;;;-144.30;44.23;83953.50;5069421;28;20203;-58
2023/09/19 08:53:45;;;;;;;5.93;5.30;;;;;;;-144.30;44.18;83935.59;5069548;28;20199;-58
2023/09/19 08:56:13;;;;;;;17.27;6.22;;;;;;;-144.30;44.35;83953.50;5069734;28;20288;-59
2023/09/19 08:58:46;;;;;;;6.30;5.45;;;;;;;-144.30;44.69;84005.16;5069421;28;20579;-58
2023/09/19 09:01:16;;;;;;;14.82;6.13;;;;;;;-144.30;44.88;84011.13;5069585;28;20203;-58
2023/09/19 09:03:46;;;;;;;10.40;6.20;;;;;;;-144.30;44.70;83977.34;5069066;28;20229;-56
2023/09/19 09:06:16;;;;;;;6.10;5.25;;;;;;;-144.30;44.55;83979.31;5069733;28;20249;-55
2023/09/19 09:08:45;;;;;;;6.85;5.60;;;;;;;-144.30;43.96;83911.75;5069367;28;20203;-56
2023/09/19 09:11:12;;;;;;;9.63;6.03;;;;;;;-144.30;43.34;83856.13;5069300;28;20210;-58
2023/09/19 09:13:41;;;;;;;6.32;5.55;;;;;;;-144.30;42.51;83852.16;5069310;28;20670;-59
2023/09/19 09:16:09;;;;;;;9.88;6.00;;;;;;;-144.30;42.63;83877.97;5069197;28;20253;-59
2023/09/19 09:18:37;;;;;;;12.55;5.75;;;;;;;-144.30;42.96;83919.72;5069169;28;20236;-55
2023/09/19 09:21:05;;;;;;;6.40;6.00;;;;;;;-144.30;43.09;83981.31;5069177;28;20665;-55
2023/09/19 09:23:32;;;;;;;15.50;6.10;;;;;;;-144.30;43.04;83881.97;5069339;28;20766;-55
2023/09/19 09:26:03;;;;;;;6.95;5.57;;;;;;;-144.30;43.17;83881.97;5068935;28;20211;-55
2023/09/19 09:28:33;;;;;;;8.10;5.47;;;;;;;-144.30;43.24;83881.97;5068991;28;20195;-55
2023/09/19 09:31:00;;;;;;;8.85;5.53;;;;;;;-144.30;42.42;83866.06;5069133;28;20669;-55
2023/09/19 09:33:28;;;;;;;5.82;5.22;;;;;;;-144.30;42.15;83818.38;5069017;28;20203;-55
2023/09/19 09:36:00;;;;;;;6.18;5.25;;;;;;;-144.30;42.17;83860.09;5068807;28;20222;-57
2023/09/19 09:38:28;;;;;;;7.82;5.30;;;;;;;-144.30;41.89;83838.25;5069197;28;20746;-54
2023/09/19 09:41:01;;;;;;;9.38;5.07;;;;;;;-144.30;41.89;83846.19;5068774;28;20199;-56
2023/09/19 09:43:35;;;;;;;7.68;5.32;;;;;;;-144.30;41.69;83814.41;5069182;28;20231;-57
2023/09/19 09:49:26;;;;;;;5.80;5.00;;;;;;;-144.30;41.71;83794.53;5069130;28;20199;-58
2023/09/19 09:52:00;;;;;;;5.85;5.35;;;;;;;-144.30;42.14;83774.66;5068723;28;20200;-57
2023/09/19 09:54:36;;;;;;;5.40;4.90;;;;;;;-144.30;42.05;83796.50;5069920;28;20188;-59
2023/09/19 09:57:13;;;;;;;5.85;5.13;;;;;;;-144.30;42.05;83826.31;5072492;28;20195;-55
2023/09/19 09:59:50;;;;;;;6.03;5.28;;;;;;;-144.30;42.14;83850.16;5072589;28;20598;-55
2023/09/19 10:02:29;;;;;;;8.45;5.60;;;;;;;-144.30;41.98;83860.09;5072515;28;20188;-55
2023/09/19 10:05:09;;;;;;;5.68;5.18;;;;;;;-144.30;42.01;83836.25;5072416;28;20645;-56
2023/09/19 10:07:38;;;;;;;5.53;5.13;;;;;;;-144.30;42.02;83881.97;5072478;28;20200;-55
2023/09/19 10:10:15;;;;;;;6.13;5.60;;;;;;;-144.30;41.95;83870.03;5072188;28;20246;-56
2023/09/19 10:12:47;;;;;;;5.93;5.43;;;;;;;-144.30;42.13;83929.66;5072156;28;20192;-55
2023/09/19 10:15:20;;;;;;;6.28;5.40;;;;;;;-144.30;42.07;83883.94;5072200;28;20199;-56
2023/09/19 10:17:48;;;;;;;5.57;5.13;;;;;;;-144.30;42.08;83872.03;5071825;28;20232;-59
2023/09/19 10:20:35;;;;;;;8.25;5.75;;;;;;;-144.30;41.83;83834.25;5072198;28;20198;-59
2023/09/19 10:23:09;;;;;;;6.22;5.57;;;;;;;-144.30;41.81;83830.28;5072078;28;20200;-58
2023/09/19 10:25:38;;;;;;;5.90;4.75;;;;;;;-144.30;41.13;83772.66;5072220;28;20192;-58
2023/09/19 10:28:10;;;;;;;6.25;5.72;;;;;;;-144.30;41.08;83748.81;5072057;28;20579;-58
2023/09/19 10:30:44;;;;;;;5.85;5.35;;;;;;;-144.30;40.60;83734.91;5072028;28;20271;-58
2023/09/19 10:33:12;;;;;;;7.32;5.35;;;;;;;-144.30;40.40;83766.72;5071888;28;20192;-59
2023/09/19 10:35:41;;;;;;;5.65;4.75;;;;;;;-144.30;40.50;83719.03;5071805;28;20196;-53
2023/09/19 10:38:10;;;;;;;6.93;5.00;;;;;;;-144.30;40.21;83687.22;5072220;28;20659;-57
2023/09/19 10:40:42;;;;;;;17.20;5.47;;;;;;;-144.30;40.06;83866.06;5071540;28;20204;-54
2023/09/19 10:43:13;;;;;;;5.50;5.00;;;;;;;-144.30;40.12;83709.09;5071595;28;20196;-55
2023/09/19 10:45:42;;;;;;;9.02;5.07;;;;;;;-144.30;40.38;83736.91;5071358;28;20196;-55
2023/09/19 10:48:09;;;;;;;5.40;4.93;;;;;;;-144.30;40.30;83709.09;5071687;28;20200;-55
2023/09/19 10:50:44;;;;;;;5.13;4.75;;;;;;;-144.30;40.38;83758.75;5071487;28;20202;-55
2023/09/19 10:53:13;;;;;;;6.72;5.70;;;;;;;-144.30;40.59;83756.78;5071470;28;20191;-55
2023/09/19 10:55:41;;;;;;;8.68;4.95;;;;;;;-144.30;40.86;83752.78;5071252;28;20674;-57
2023/09/19 10:58:15;;;;;;;5.82;5.18;;;;;;;-144.30;40.55;83687.22;5071094;28;20234;-58
2023/09/19 11:00:55;;;;;;;5.68;4.72;;;;;;;-144.30;40.43;83734.91;5071401;28;20279;-58
2023/09/19 11:03:30;;;;;;;13.27;5.57;;;;;;;-144.30;40.49;83738.88;5071221;28;20196;-58
2023/09/19 11:06:10;;;;;;;5.40;4.90;;;;;;;-144.30;40.31;83711.06;5069883;28;20196;-58
2023/09/19 11:08:56;;;;;;;5.45;5.05;;;;;;;-144.30;40.33;83653.44;5071029;28;20203;-54
2023/09/19 11:11:42;;;;;;;6.57;5.53;;;;;;;-144.30;40.01;83655.44;5071169;28;20242;-54
2023/09/19 11:14:16;;;;;;;7.20;5.50;;;;;;;-144.30;39.77;83689.22;5071404;28;20246;-54
2023/09/19 11:17:17;;;;;;;5.25;4.85;;;;;;;-144.30;39.97;83695.19;5070596;28;20214;-58
2023/09/19 11:23:25;;;;;;;6.53;5.80;;;;;;;-144.30;39.59;83687.22;5046596;28;20197;-54
2023/09/19 11:25:54;;;;;;;5.60;5.10;;;;;;;-144.30;39.58;83675.31;5050617;28;20680;-55
2023/09/19 11:28:35;;;;;;;12.38;9.50;;;;;;;-144.30;40.32;83681.28;5050838;28;20585;-59
2023/09/19 11:31:36;;;;;;;8.40;7.55;;;;;;;-144.30;41.00;83728.97;5050514;28;20236;-59